sensor_id;sensor_type;location;lat;lon;timestamp;temperature;humidity
33269;DHT22;19640;50.944;5.260;2024-02-15T00:01:41;13.40;99.90
33269;DHT22;19640;50.944;5.260;2024-02-15T00:04:07;13.30;99.90
33269;DHT22;19640;50.944;5.260;2024-02-15T00:06:33;13.40;99.90
33269;DHT22;19640;50.944;5.260;2024-02-15T00:08:58;13.40;99.90
33269;DHT22;19640;50.944;5.260;2024-02-15T00:11:24;13.50;99.90
33269;DHT22;19640;50.944;5.260;2024-02-15T00:13:50;13.50;99.90
33269;DHT22;19640;50.944;5.260;2024-02-15T00:16:15;13.60;99.90
33269;DHT22;19640;50.944;5.260;2024-02-15T00:18:41;13.50;99.90
33269;DHT22;19640;50.944;5.260;2024-02-15T00:21:07;13.50;99.90
33269;DHT22;19640;50.944;5.260;2024-02-15T00:23:33;13.50;99.90
33269;DHT22;19640;50.944;5.260;2024-02-15T00:25:58;13.50;99.90
33269;DHT22;19640;50.944;5.260;2024-02-15T00:28:24;13.40;99.90
33269;DHT22;19640;50.944;5.260;2024-02-15T00:30:52;13.40;99.90
33269;DHT22;19640;50.944;5.260;2024-02-15T00:33:17;13.50;99.90
33269;DHT22;19640;50.944;5.260;2024-02-15T00:35:43;13.40;99.90
33269;DHT22;19640;50.944;5.260;2024-02-15T00:38:09;13.40;99.90
33269;DHT22;19640;50.944;5.260;2024-02-15T00:40:34;13.50;99.90
33269;DHT22;19640;50.944;5.260;2024-02-15T00:43:00;13.30;99.90
33269;DHT22;19640;50.944;5.260;2024-02-15T00:45:26;13.40;99.90
33269;DHT22;19640;50.944;5.260;2024-02-15T00:47:51;13.30;99.90
33269;DHT22;19640;50.944;5.260;2024-02-15T00:50:17;13.40;99.90
33269;DHT22;19640;50.944;5.260;2024-02-15T00:52:43;13.50;99.90
33269;DHT22;19640;50.944;5.260;2024-02-15T00:55:09;13.50;99.90
33269;DHT22;19640;50.944;5.260;2024-02-15T00:57:35;13.50;99.90
33269;DHT22;19640;50.944;5.260;2024-02-15T01:00:00;13.40;99.90
33269;DHT22;19640;50.944;5.260;2024-02-15T01:02:27;13.50;99.90
33269;DHT22;19640;50.944;5.260;2024-02-15T01:04:54;13.40;99.90
33269;DHT22;19640;50.944;5.260;2024-02-15T01:07:22;13.50;99.90
33269;DHT22;19640;50.944;5.260;2024-02-15T01:09:53;13.60;99.90
33269;DHT22;19640;50.944;5.260;2024-02-15T01:12:18;13.50;99.90
33269;DHT22;19640;50.944;5.260;2024-02-15T01:14:44;13.50;99.90
33269;DHT22;19640;50.944;5.260;2024-02-15T01:17:10;13.20;99.90
33269;DHT22;19640;50.944;5.260;2024-02-15T01:19:35;13.30;99.90
33269;DHT22;19640;50.944;5.260;2024-02-15T01:22:01;13.40;99.90
33269;DHT22;19640;50.944;5.260;2024-02-15T01:24:28;13.30;99.90
33269;DHT22;19640;50.944;5.260;2024-02-15T01:26:53;13.30;99.90
33269;DHT22;19640;50.944;5.260;2024-02-15T01:29:19;13.50;99.90
33269;DHT22;19640;50.944;5.260;2024-02-15T01:31:46;13.40;99.90
33269;DHT22;19640;50.944;5.260;2024-02-15T01:34:11;13.40;99.90
33269;DHT22;19640;50.944;5.260;2024-02-15T01:36:37;13.50;99.90
33269;DHT22;19640;50.944;5.260;2024-02-15T01:39:02;13.40;99.90
33269;DHT22;19640;50.944;5.260;2024-02-15T01:41:28;13.40;99.90
33269;DHT22;19640;50.944;5.260;2024-02-15T01:43:54;13.40;99.90
33269;DHT22;19640;50.944;5.260;2024-02-15T01:46:20;13.60;99.90
33269;DHT22;19640;50.944;5.260;2024-02-15T01:48:46;13.60;99.90
33269;DHT22;19640;50.944;5.260;2024-02-15T01:51:13;13.50;99.90
33269;DHT22;19640;50.944;5.260;2024-02-15T01:53:41;13.50;99.90
33269;DHT22;19640;50.944;5.260;2024-02-15T01:56:07;13.50;99.90
33269;DHT22;19640;50.944;5.260;2024-02-15T01:58:33;13.50;99.90
33269;DHT22;19640;50.944;5.260;2024-02-15T02:01:00;13.60;99.90
33269;DHT22;19640;50.944;5.260;2024-02-15T02:03:27;13.60;99.90
33269;DHT22;19640;50.944;5.260;2024-02-15T02:05:53;13.60;99.90
33269;DHT22;19640;50.944;5.260;2024-02-15T02:08:18;13.70;99.90
33269;DHT22;19640;50.944;5.260;2024-02-15T02:10:44;13.60;99.90
33269;DHT22;19640;50.944;5.260;2024-02-15T02:13:11;13.50;99.90
33269;DHT22;19640;50.944;5.260;2024-02-15T02:15:37;13.40;99.90
33269;DHT22;19640;50.944;5.260;2024-02-15T02:18:04;13.60;99.90
33269;DHT22;19640;50.944;5.260;2024-02-15T02:20:34;13.60;99.90
33269;DHT22;19640;50.944;5.260;2024-02-15T02:23:07;13.70;99.90
33269;DHT22;19640;50.944;5.260;2024-02-15T02:25:35;13.80;99.90
33269;DHT22;19640;50.944;5.260;2024-02-15T02:28:01;13.70;99.90
33269;DHT22;19640;50.944;5.260;2024-02-15T02:30:27;13.40;99.90
33269;DHT22;19640;50.944;5.260;2024-02-15T02:32:56;13.30;99.90
33269;DHT22;19640;50.944;5.260;2024-02-15T02:35:22;13.30;99.90
33269;DHT22;19640;50.944;5.260;2024-02-15T02:37:48;13.40;99.90
33269;DHT22;19640;50.944;5.260;2024-02-15T02:40:14;13.50;99.90
33269;DHT22;19640;50.944;5.260;2024-02-15T02:42:52;13.50;99.90
33269;DHT22;19640;50.944;5.260;2024-02-15T02:45:18;13.40;99.90
33269;DHT22;19640;50.944;5.260;2024-02-15T02:47:48;13.60;99.90
33269;DHT22;19640;50.944;5.260;2024-02-15T02:50:14;13.60;99.90
33269;DHT22;19640;50.944;5.260;2024-02-15T02:52:40;13.50;99.90
33269;DHT22;19640;50.944;5.260;2024-02-15T02:55:06;13.50;99.90
33269;DHT22;19640;50.944;5.260;2024-02-15T02:57:34;13.50;99.90
33269;DHT22;19640;50.944;5.260;2024-02-15T03:00:04;13.60;99.90
33269;DHT22;19640;50.944;5.260;2024-02-15T03:02:34;13.50;99.90
33269;DHT22;19640;50.944;5.260;2024-02-15T03:05:03;13.40;99.90
33269;DHT22;19640;50.944;5.260;2024-02-15T03:07:29;13.30;99.90
33269;DHT22;19640;50.944;5.260;2024-02-15T03:09:57;13.50;99.90
33269;DHT22;19640;50.944;5.260;2024-02-15T03:12:23;13.50;99.90
33269;DHT22;19640;50.944;5.260;2024-02-15T03:14:49;13.50;99.90
33269;DHT22;19640;50.944;5.260;2024-02-15T03:17:14;13.40;99.90
33269;DHT22;19640;50.944;5.260;2024-02-15T03:19:40;13.40;99.90
33269;DHT22;19640;50.944;5.260;2024-02-15T03:22:06;13.40;99.90
33269;DHT22;19640;50.944;5.260;2024-02-15T03:24:31;13.30;99.90
33269;DHT22;19640;50.944;5.260;2024-02-15T03:26:57;13.30;99.90
33269;DHT22;19640;50.944;5.260;2024-02-15T03:29:23;13.30;99.90
33269;DHT22;19640;50.944;5.260;2024-02-15T03:31:49;13.50;99.90
33269;DHT22;19640;50.944;5.260;2024-02-15T03:34:14;13.60;99.90
33269;DHT22;19640;50.944;5.260;2024-02-15T03:36:41;13.60;99.90
33269;DHT22;19640;50.944;5.260;2024-02-15T03:39:07;13.50;99.90
33269;DHT22;19640;50.944;5.260;2024-02-15T03:41:33;13.40;99.90
33269;DHT22;19640;50.944;5.260;2024-02-15T03:43:59;13.40;99.90
33269;DHT22;19640;50.944;5.260;2024-02-15T03:46:26;13.20;99.90
33269;DHT22;19640;50.944;5.260;2024-02-15T03:48:53;13.30;99.90
33269;DHT22;19640;50.944;5.260;2024-02-15T03:51:20;13.20;99.90
33269;DHT22;19640;50.944;5.260;2024-02-15T03:53:46;13.10;99.90
33269;DHT22;19640;50.944;5.260;2024-02-15T03:56:13;13.30;99.90
33269;DHT22;19640;50.944;5.260;2024-02-15T03:58:38;13.60;99.90
33269;DHT22;19640;50.944;5.260;2024-02-15T04:01:04;13.60;99.90
33269;DHT22;19640;50.944;5.260;2024-02-15T04:03:32;13.70;99.90
33269;DHT22;19640;50.944;5.260;2024-02-15T04:05:59;13.60;99.90
33269;DHT22;19640;50.944;5.260;2024-02-15T04:08:26;13.30;99.90
33269;DHT22;19640;50.944;5.260;2024-02-15T04:10:52;13.20;99.90
33269;DHT22;19640;50.944;5.260;2024-02-15T04:13:19;13.20;99.90
33269;DHT22;19640;50.944;5.260;2024-02-15T04:15:44;13.20;99.90
33269;DHT22;19640;50.944;5.260;2024-02-15T04:18:13;13.20;99.90
33269;DHT22;19640;50.944;5.260;2024-02-15T04:20:39;13.10;99.90
33269;DHT22;19640;50.944;5.260;2024-02-15T04:23:13;13.20;99.90
33269;DHT22;19640;50.944;5.260;2024-02-15T04:25:39;13.40;99.90
33269;DHT22;19640;50.944;5.260;2024-02-15T04:28:06;13.20;99.90
33269;DHT22;19640;50.944;5.260;2024-02-15T04:30:34;13.20;99.90
33269;DHT22;19640;50.944;5.260;2024-02-15T04:33:04;13.20;99.90
33269;DHT22;19640;50.944;5.260;2024-02-15T04:35:30;13.10;99.90
33269;DHT22;19640;50.944;5.260;2024-02-15T04:37:56;13.00;99.90
33269;DHT22;19640;50.944;5.260;2024-02-15T04:40:23;13.10;99.90
33269;DHT22;19640;50.944;5.260;2024-02-15T04:42:48;12.90;99.90
33269;DHT22;19640;50.944;5.260;2024-02-15T04:45:14;12.70;99.90
33269;DHT22;19640;50.944;5.260;2024-02-15T04:47:41;12.80;99.90
33269;DHT22;19640;50.944;5.260;2024-02-15T04:50:07;12.60;99.90
33269;DHT22;19640;50.944;5.260;2024-02-15T04:52:33;12.60;99.90
33269;DHT22;19640;50.944;5.260;2024-02-15T04:54:59;12.60;99.90
33269;DHT22;19640;50.944;5.260;2024-02-15T04:57:27;12.70;99.90
33269;DHT22;19640;50.944;5.260;2024-02-15T04:59:56;12.90;99.90
33269;DHT22;19640;50.944;5.260;2024-02-15T05:02:22;12.70;99.90
33269;DHT22;19640;50.944;5.260;2024-02-15T05:04:50;12.50;99.90
33269;DHT22;19640;50.944;5.260;2024-02-15T05:07:21;12.60;99.90
33269;DHT22;19640;50.944;5.260;2024-02-15T05:09:48;12.60;99.90
33269;DHT22;19640;50.944;5.260;2024-02-15T05:12:22;12.80;99.90
33269;DHT22;19640;50.944;5.260;2024-02-15T05:14:51;12.90;99.90
33269;DHT22;19640;50.944;5.260;2024-02-15T05:17:18;12.80;99.90
33269;DHT22;19640;50.944;5.260;2024-02-15T05:19:44;12.80;99.90
33269;DHT22;19640;50.944;5.260;2024-02-15T05:22:10;12.90;99.90
33269;DHT22;19640;50.944;5.260;2024-02-15T05:24:36;12.70;99.90
33269;DHT22;19640;50.944;5.260;2024-02-15T05:27:04;12.60;99.90
33269;DHT22;19640;50.944;5.260;2024-02-15T05:29:31;12.60;99.90
33269;DHT22;19640;50.944;5.260;2024-02-15T05:31:59;12.60;99.90
33269;DHT22;19640;50.944;5.260;2024-02-15T05:34:26;12.80;99.90
33269;DHT22;19640;50.944;5.260;2024-02-15T05:36:51;12.90;99.90
33269;DHT22;19640;50.944;5.260;2024-02-15T05:39:17;13.00;99.90
33269;DHT22;19640;50.944;5.260;2024-02-15T05:41:47;13.00;99.90
33269;DHT22;19640;50.944;5.260;2024-02-15T05:44:12;13.00;99.90
33269;DHT22;19640;50.944;5.260;2024-02-15T05:46:40;12.90;99.90
33269;DHT22;19640;50.944;5.260;2024-02-15T05:49:06;13.00;99.90
33269;DHT22;19640;50.944;5.260;2024-02-15T05:51:31;12.90;99.90
33269;DHT22;19640;50.944;5.260;2024-02-15T05:53:59;12.60;99.90
33269;DHT22;19640;50.944;5.260;2024-02-15T05:56:25;12.30;99.90
33269;DHT22;19640;50.944;5.260;2024-02-15T05:58:52;12.20;99.90
33269;DHT22;19640;50.944;5.260;2024-02-15T06:01:17;12.30;99.90
33269;DHT22;19640;50.944;5.260;2024-02-15T06:03:43;12.30;99.90
33269;DHT22;19640;50.944;5.260;2024-02-15T06:06:11;12.30;99.90
33269;DHT22;19640;50.944;5.260;2024-02-15T06:08:38;12.40;99.90
33269;DHT22;19640;50.944;5.260;2024-02-15T06:11:04;12.50;99.90
33269;DHT22;19640;50.944;5.260;2024-02-15T06:13:34;12.50;99.90
33269;DHT22;19640;50.944;5.260;2024-02-15T06:16:00;12.20;99.90
33269;DHT22;19640;50.944;5.260;2024-02-15T06:18:28;12.00;99.90
33269;DHT22;19640;50.944;5.260;2024-02-15T06:20:58;11.90;99.90
33269;DHT22;19640;50.944;5.260;2024-02-15T06:23:25;12.10;99.90
33269;DHT22;19640;50.944;5.260;2024-02-15T06:25:54;12.30;99.90
33269;DHT22;19640;50.944;5.260;2024-02-15T06:28:22;12.20;99.90
33269;DHT22;19640;50.944;5.260;2024-02-15T06:31:11;12.00;99.90
33269;DHT22;19640;50.944;5.260;2024-02-15T06:33:55;11.90;99.90
33269;DHT22;19640;50.944;5.260;2024-02-15T06:36:49;11.80;99.90
33269;DHT22;19640;50.944;5.260;2024-02-15T06:39:34;11.70;99.90
33269;DHT22;19640;50.944;5.260;2024-02-15T06:42:14;11.70;99.90
33269;DHT22;19640;50.944;5.260;2024-02-15T06:44:45;11.50;99.90
33269;DHT22;19640;50.944;5.260;2024-02-15T06:47:11;11.50;99.90
33269;DHT22;19640;50.944;5.260;2024-02-15T06:49:38;11.60;99.90
33269;DHT22;19640;50.944;5.260;2024-02-15T06:52:08;11.60;99.90
33269;DHT22;19640;50.944;5.260;2024-02-15T06:54:38;11.80;99.90
33269;DHT22;19640;50.944;5.260;2024-02-15T06:57:04;12.10;99.90
33269;DHT22;19640;50.944;5.260;2024-02-15T06:59:31;12.40;99.90
33269;DHT22;19640;50.944;5.260;2024-02-15T07:02:03;12.30;99.90
33269;DHT22;19640;50.944;5.260;2024-02-15T07:04:33;12.30;99.90
33269;DHT22;19640;50.944;5.260;2024-02-15T07:06:59;12.50;99.90
33269;DHT22;19640;50.944;5.260;2024-02-15T07:09:25;12.70;99.90
33269;DHT22;19640;50.944;5.260;2024-02-15T07:11:51;12.60;99.90
33269;DHT22;19640;50.944;5.260;2024-02-15T07:14:18;12.60;99.90
33269;DHT22;19640;50.944;5.260;2024-02-15T07:16:47;12.70;99.90
33269;DHT22;19640;50.944;5.260;2024-02-15T07:19:13;12.60;99.90
33269;DHT22;19640;50.944;5.260;2024-02-15T07:21:39;12.70;99.90
33269;DHT22;19640;50.944;5.260;2024-02-15T07:24:05;12.80;99.90
33269;DHT22;19640;50.944;5.260;2024-02-15T07:26:31;12.80;99.90
33269;DHT22;19640;50.944;5.260;2024-02-15T07:28:58;13.00;99.90
33269;DHT22;19640;50.944;5.260;2024-02-15T07:31:27;13.00;99.90
33269;DHT22;19640;50.944;5.260;2024-02-15T07:33:54;12.90;99.90
33269;DHT22;19640;50.944;5.260;2024-02-15T07:36:21;13.00;99.90
33269;DHT22;19640;50.944;5.260;2024-02-15T07:38:47;13.00;99.90
33269;DHT22;19640;50.944;5.260;2024-02-15T07:41:23;13.10;99.90
33269;DHT22;19640;50.944;5.260;2024-02-15T07:43:50;13.10;99.90
33269;DHT22;19640;50.944;5.260;2024-02-15T07:46:16;13.20;99.90
33269;DHT22;19640;50.944;5.260;2024-02-15T07:48:42;13.10;99.90
33269;DHT22;19640;50.944;5.260;2024-02-15T07:51:22;13.00;99.90
33269;DHT22;19640;50.944;5.260;2024-02-15T07:53:48;13.00;99.90
33269;DHT22;19640;50.944;5.260;2024-02-15T07:56:16;13.00;99.90
33269;DHT22;19640;50.944;5.260;2024-02-15T07:58:46;13.10;99.90
33269;DHT22;19640;50.944;5.260;2024-02-15T08:01:16;13.30;99.90
33269;DHT22;19640;50.944;5.260;2024-02-15T08:03:42;13.30;99.90
33269;DHT22;19640;50.944;5.260;2024-02-15T08:06:15;13.20;99.90
33269;DHT22;19640;50.944;5.260;2024-02-15T08:08:42;13.30;99.90
33269;DHT22;19640;50.944;5.260;2024-02-15T08:11:11;13.40;99.90
33269;DHT22;19640;50.944;5.260;2024-02-15T08:13:49;13.40;99.90
33269;DHT22;19640;50.944;5.260;2024-02-15T08:16:20;13.40;99.90
33269;DHT22;19640;50.944;5.260;2024-02-15T08:18:49;13.50;99.90
33269;DHT22;19640;50.944;5.260;2024-02-15T08:21:18;13.50;99.90
33269;DHT22;19640;50.944;5.260;2024-02-15T08:23:43;13.60;99.90
33269;DHT22;19640;50.944;5.260;2024-02-15T08:26:10;13.50;99.90
33269;DHT22;19640;50.944;5.260;2024-02-15T08:28:39;13.60;99.90
33269;DHT22;19640;50.944;5.260;2024-02-15T08:31:05;13.70;99.90
33269;DHT22;19640;50.944;5.260;2024-02-15T08:33:30;13.70;99.90
33269;DHT22;19640;50.944;5.260;2024-02-15T08:35:56;13.80;99.90
33269;DHT22;19640;50.944;5.260;2024-02-15T08:38:23;13.90;99.90
33269;DHT22;19640;50.944;5.260;2024-02-15T08:40:48;13.90;99.90
33269;DHT22;19640;50.944;5.260;2024-02-15T08:43:15;13.90;99.90
33269;DHT22;19640;50.944;5.260;2024-02-15T08:45:43;13.90;99.90
33269;DHT22;19640;50.944;5.260;2024-02-15T08:48:09;13.90;99.90
33269;DHT22;19640;50.944;5.260;2024-02-15T08:50:35;13.80;99.90
33269;DHT22;19640;50.944;5.260;2024-02-15T08:53:02;14.00;99.90
33269;DHT22;19640;50.944;5.260;2024-02-15T08:55:31;14.10;99.90
33269;DHT22;19640;50.944;5.260;2024-02-15T08:57:57;14.10;99.90
33269;DHT22;19640;50.944;5.260;2024-02-15T09:00:25;14.20;99.90
33269;DHT22;19640;50.944;5.260;2024-02-15T09:02:52;14.00;99.90
33269;DHT22;19640;50.944;5.260;2024-02-15T09:05:18;14.10;99.90
33269;DHT22;19640;50.944;5.260;2024-02-15T09:07:45;14.00;99.90
33269;DHT22;19640;50.944;5.260;2024-02-15T09:10:14;14.00;99.90
33269;DHT22;19640;50.944;5.260;2024-02-15T09:12:41;14.10;99.90
33269;DHT22;19640;50.944;5.260;2024-02-15T09:15:08;14.10;99.90
33269;DHT22;19640;50.944;5.260;2024-02-15T09:17:34;14.20;99.90
33269;DHT22;19640;50.944;5.260;2024-02-15T09:20:11;14.40;99.90
33269;DHT22;19640;50.944;5.260;2024-02-15T09:25:07;14.50;99.90
33269;DHT22;19640;50.944;5.260;2024-02-15T09:27:32;14.70;99.90
33269;DHT22;19640;50.944;5.260;2024-02-15T09:29:58;14.60;99.90
33269;DHT22;19640;50.944;5.260;2024-02-15T09:32:24;14.80;99.90
33269;DHT22;19640;50.944;5.260;2024-02-15T09:34:49;14.90;99.90
33269;DHT22;19640;50.944;5.260;2024-02-15T09:37:15;14.70;99.90
33269;DHT22;19640;50.944;5.260;2024-02-15T09:39:41;14.70;99.90
33269;DHT22;19640;50.944;5.260;2024-02-15T09:42:07;14.80;99.90
33269;DHT22;19640;50.944;5.260;2024-02-15T09:44:32;14.90;99.90
33269;DHT22;19640;50.944;5.260;2024-02-15T09:47:05;14.90;99.90
33269;DHT22;19640;50.944;5.260;2024-02-15T09:49:40;15.10;99.90
33269;DHT22;19640;50.944;5.260;2024-02-15T09:52:07;15.20;99.90
33269;DHT22;19640;50.944;5.260;2024-02-15T09:54:42;15.20;99.90
33269;DHT22;19640;50.944;5.260;2024-02-15T09:57:11;15.30;99.90
33269;DHT22;19640;50.944;5.260;2024-02-15T09:59:38;15.30;99.90
33269;DHT22;19640;50.944;5.260;2024-02-15T10:02:04;15.50;99.90
33269;DHT22;19640;50.944;5.260;2024-02-15T10:04:37;15.50;99.90
33269;DHT22;19640;50.944;5.260;2024-02-15T10:07:03;15.70;99.90
33269;DHT22;19640;50.944;5.260;2024-02-15T10:09:30;15.60;99.90
33269;DHT22;19640;50.944;5.260;2024-02-15T10:12:00;15.60;99.90
33269;DHT22;19640;50.944;5.260;2024-02-15T10:14:28;15.80;99.90
33269;DHT22;19640;50.944;5.260;2024-02-15T10:16:54;15.80;99.90
33269;DHT22;19640;50.944;5.260;2024-02-15T10:19:20;15.70;99.90
33269;DHT22;19640;50.944;5.260;2024-02-15T10:22:06;15.80;99.90
33269;DHT22;19640;50.944;5.260;2024-02-15T10:24:32;15.90;99.90
33269;DHT22;19640;50.944;5.260;2024-02-15T10:27:02;15.80;99.90
33269;DHT22;19640;50.944;5.260;2024-02-15T10:29:33;15.90;99.90
33269;DHT22;19640;50.944;5.260;2024-02-15T10:32:00;16.00;99.90
33269;DHT22;19640;50.944;5.260;2024-02-15T10:34:26;16.20;99.90
33269;DHT22;19640;50.944;5.260;2024-02-15T10:37:11;16.30;99.90
33269;DHT22;19640;50.944;5.260;2024-02-15T10:39:37;16.20;99.90
33269;DHT22;19640;50.944;5.260;2024-02-15T10:42:06;16.20;99.90
33269;DHT22;19640;50.944;5.260;2024-02-15T10:44:32;16.30;99.90
33269;DHT22;19640;50.944;5.260;2024-02-15T10:46:59;16.40;99.90
33269;DHT22;19640;50.944;5.260;2024-02-15T10:49:31;16.50;99.90
33269;DHT22;19640;50.944;5.260;2024-02-15T10:51:58;16.70;99.90
33269;DHT22;19640;50.944;5.260;2024-02-15T10:57:12;16.50;99.90
33269;DHT22;19640;50.944;5.260;2024-02-15T10:59:55;16.70;99.90
33269;DHT22;19640;50.944;5.260;2024-02-15T11:02:26;16.90;99.90
33269;DHT22;19640;50.944;5.260;2024-02-15T11:04:53;16.60;99.90
33269;DHT22;19640;50.944;5.260;2024-02-15T11:07:26;16.60;99.90
33269;DHT22;19640;50.944;5.260;2024-02-15T11:09:56;16.70;99.90
33269;DHT22;19640;50.944;5.260;2024-02-15T11:12:25;16.70;99.90
33269;DHT22;19640;50.944;5.260;2024-02-15T11:14:52;16.50;99.90
33269;DHT22;19640;50.944;5.260;2024-02-15T11:20:03;16.60;99.90
33269;DHT22;19640;50.944;5.260;2024-02-15T11:22:35;16.40;99.90
33269;DHT22;19640;50.944;5.260;2024-02-15T11:25:08;16.50;99.90
33269;DHT22;19640;50.944;5.260;2024-02-15T11:27:40;16.70;99.90
33269;DHT22;19640;50.944;5.260;2024-02-15T11:30:07;16.80;99.90
33269;DHT22;19640;50.944;5.260;2024-02-15T11:32:46;17.00;99.90
33269;DHT22;19640;50.944;5.260;2024-02-15T11:35:22;17.00;99.90
33269;DHT22;19640;50.944;5.260;2024-02-15T11:40:23;16.90;99.90
33269;DHT22;19640;50.944;5.260;2024-02-15T11:42:51;17.00;99.90
33269;DHT22;19640;50.944;5.260;2024-02-15T11:45:18;17.20;99.90
33269;DHT22;19640;50.944;5.260;2024-02-15T11:47:47;17.30;99.90
33269;DHT22;19640;50.944;5.260;2024-02-15T11:50:19;17.40;99.90
33269;DHT22;19640;50.944;5.260;2024-02-15T11:52:49;17.40;99.90
33269;DHT22;19640;50.944;5.260;2024-02-15T11:55:19;17.20;99.90
33269;DHT22;19640;50.944;5.260;2024-02-15T11:57:58;17.20;99.90
33269;DHT22;19640;50.944;5.260;2024-02-15T12:00:36;17.20;99.90
33269;DHT22;19640;50.944;5.260;2024-02-15T12:03:21;17.20;99.90
33269;DHT22;19640;50.944;5.260;2024-02-15T12:06:06;17.20;99.90
33269;DHT22;19640;50.944;5.260;2024-02-15T12:08:51;17.20;99.90
33269;DHT22;19640;50.944;5.260;2024-02-15T12:11:36;17.20;99.90
33269;DHT22;19640;50.944;5.260;2024-02-15T12:17:24;17.00;99.90
33269;DHT22;19640;50.944;5.260;2024-02-15T12:20:08;17.20;99.90
33269;DHT22;19640;50.944;5.260;2024-02-15T12:22:49;17.20;99.90
33269;DHT22;19640;50.944;5.260;2024-02-15T12:25:16;17.20;99.90
33269;DHT22;19640;50.944;5.260;2024-02-15T12:27:46;17.20;99.90
33269;DHT22;19640;50.944;5.260;2024-02-15T12:30:18;17.00;99.90
33269;DHT22;19640;50.944;5.260;2024-02-15T12:32:48;17.00;99.90
33269;DHT22;19640;50.944;5.260;2024-02-15T12:35:19;17.10;99.90
33269;DHT22;19640;50.944;5.260;2024-02-15T12:37:46;17.20;99.90
33269;DHT22;19640;50.944;5.260;2024-02-15T12:40:13;17.20;99.90
33269;DHT22;19640;50.944;5.260;2024-02-15T12:42:45;17.40;99.90
33269;DHT22;19640;50.944;5.260;2024-02-15T12:45:22;17.50;99.90
33269;DHT22;19640;50.944;5.260;2024-02-15T12:47:51;17.50;99.90
33269;DHT22;19640;50.944;5.260;2024-02-15T12:50:18;17.50;99.90
33269;DHT22;19640;50.944;5.260;2024-02-15T12:52:49;17.50;99.90
33269;DHT22;19640;50.944;5.260;2024-02-15T12:55:22;17.40;99.90
33269;DHT22;19640;50.944;5.260;2024-02-15T12:57:49;17.40;99.90
33269;DHT22;19640;50.944;5.260;2024-02-15T13:00:27;17.20;99.90
33269;DHT22;19640;50.944;5.260;2024-02-15T13:03:03;17.20;99.90
33269;DHT22;19640;50.944;5.260;2024-02-15T13:05:47;17.00;99.90
33269;DHT22;19640;50.944;5.260;2024-02-15T13:08:15;17.10;99.90
33269;DHT22;19640;50.944;5.260;2024-02-15T13:10:42;17.00;99.90
33269;DHT22;19640;50.944;5.260;2024-02-15T13:13:08;17.10;99.90
33269;DHT22;19640;50.944;5.260;2024-02-15T13:18:19;17.30;99.90
33269;DHT22;19640;50.944;5.260;2024-02-15T13:20:45;17.10;99.90
33269;DHT22;19640;50.944;5.260;2024-02-15T13:23:11;16.90;99.90
33269;DHT22;19640;50.944;5.260;2024-02-15T13:25:42;16.90;99.90
33269;DHT22;19640;50.944;5.260;2024-02-15T13:28:09;16.70;99.90
33269;DHT22;19640;50.944;5.260;2024-02-15T13:30:36;16.50;99.90
33269;DHT22;19640;50.944;5.260;2024-02-15T13:35:47;16.30;99.90
33269;DHT22;19640;50.944;5.260;2024-02-15T13:38:16;16.30;99.90
33269;DHT22;19640;50.944;5.260;2024-02-15T13:40:48;16.50;99.90
33269;DHT22;19640;50.944;5.260;2024-02-15T13:43:17;16.80;99.90
33269;DHT22;19640;50.944;5.260;2024-02-15T13:45:44;17.00;99.90
33269;DHT22;19640;50.944;5.260;2024-02-15T13:48:29;17.00;99.90
33269;DHT22;19640;50.944;5.260;2024-02-15T13:50:55;17.00;99.90
33269;DHT22;19640;50.944;5.260;2024-02-15T13:53:24;16.90;99.90
33269;DHT22;19640;50.944;5.260;2024-02-15T13:55:51;16.90;99.90
33269;DHT22;19640;50.944;5.260;2024-02-15T13:58:17;17.00;99.90
33269;DHT22;19640;50.944;5.260;2024-02-15T14:00:44;17.10;99.90
33269;DHT22;19640;50.944;5.260;2024-02-15T14:03:29;17.20;99.90
33269;DHT22;19640;50.944;5.260;2024-02-15T14:08:41;17.30;99.90
33269;DHT22;19640;50.944;5.260;2024-02-15T14:11:06;17.30;99.90
33269;DHT22;19640;50.944;5.260;2024-02-15T14:13:32;17.20;99.90
33269;DHT22;19640;50.944;5.260;2024-02-15T14:16:16;17.30;99.90
33269;DHT22;19640;50.944;5.260;2024-02-15T14:18:42;17.20;99.90
33269;DHT22;19640;50.944;5.260;2024-02-15T14:21:10;17.20;99.90
33269;DHT22;19640;50.944;5.260;2024-02-15T14:23:36;17.00;99.90
33269;DHT22;19640;50.944;5.260;2024-02-15T14:26:21;17.10;99.90
33269;DHT22;19640;50.944;5.260;2024-02-15T14:28:50;17.00;99.90
33269;DHT22;19640;50.944;5.260;2024-02-15T14:31:18;17.10;99.90
33269;DHT22;19640;50.944;5.260;2024-02-15T14:34:02;17.10;99.90
33269;DHT22;19640;50.944;5.260;2024-02-15T14:36:27;17.30;99.90
33269;DHT22;19640;50.944;5.260;2024-02-15T14:38:53;17.10;99.90
33269;DHT22;19640;50.944;5.260;2024-02-15T14:41:20;17.10;99.90
33269;DHT22;19640;50.944;5.260;2024-02-15T14:43:46;17.00;99.90
33269;DHT22;19640;50.944;5.260;2024-02-15T14:46:12;16.90;99.90
33269;DHT22;19640;50.944;5.260;2024-02-15T14:48:37;16.90;99.90
33269;DHT22;19640;50.944;5.260;2024-02-15T14:51:05;16.90;99.90
33269;DHT22;19640;50.944;5.260;2024-02-15T14:53:50;16.90;99.90
33269;DHT22;19640;50.944;5.260;2024-02-15T14:56:15;16.80;99.90
33269;DHT22;19640;50.944;5.260;2024-02-15T14:58:43;17.00;99.90
33269;DHT22;19640;50.944;5.260;2024-02-15T15:01:27;17.00;99.90
33269;DHT22;19640;50.944;5.260;2024-02-15T15:03:53;17.10;99.90
33269;DHT22;19640;50.944;5.260;2024-02-15T15:06:20;17.00;99.90
33269;DHT22;19640;50.944;5.260;2024-02-15T15:09:24;17.10;99.90
33269;DHT22;19640;50.944;5.260;2024-02-15T15:12:08;17.00;99.90
33269;DHT22;19640;50.944;5.260;2024-02-15T15:14:52;17.10;99.90
33269;DHT22;19640;50.944;5.260;2024-02-15T15:17:18;17.10;99.90
33269;DHT22;19640;50.944;5.260;2024-02-15T15:19:46;17.00;99.90
33269;DHT22;19640;50.944;5.260;2024-02-15T15:22:12;16.90;99.90
33269;DHT22;19640;50.944;5.260;2024-02-15T15:24:37;16.80;99.90
33269;DHT22;19640;50.944;5.260;2024-02-15T15:27:03;16.90;99.90
33269;DHT22;19640;50.944;5.260;2024-02-15T15:29:30;16.70;99.90
33269;DHT22;19640;50.944;5.260;2024-02-15T15:31:57;16.60;99.90
33269;DHT22;19640;50.944;5.260;2024-02-15T15:34:23;16.60;99.90
33269;DHT22;19640;50.944;5.260;2024-02-15T15:36:48;16.40;99.90
33269;DHT22;19640;50.944;5.260;2024-02-15T15:39:15;16.40;99.90
33269;DHT22;19640;50.944;5.260;2024-02-15T15:41:44;16.30;99.90
33269;DHT22;19640;50.944;5.260;2024-02-15T15:44:10;16.30;99.90
33269;DHT22;19640;50.944;5.260;2024-02-15T15:46:36;16.30;99.90
33269;DHT22;19640;50.944;5.260;2024-02-15T15:49:02;16.20;99.90
33269;DHT22;19640;50.944;5.260;2024-02-15T15:51:29;16.00;99.90
33269;DHT22;19640;50.944;5.260;2024-02-15T15:53:55;15.70;99.90
33269;DHT22;19640;50.944;5.260;2024-02-15T15:56:20;15.60;99.90
33269;DHT22;19640;50.944;5.260;2024-02-15T15:58:48;15.60;99.90
33269;DHT22;19640;50.944;5.260;2024-02-15T16:01:14;15.50;99.90